Terminal Aerodrome Forecast
Issued by NWS Dodge City, KS

Home | Current Version | Previous Version | Text Only | Print | Product List | Glossary On
Versions: 1 2 3 4 5 6 7 8 9 10 11 12 13 14 15 16 17 18 19 20
000
FTUS43 KDDC 280542
TAFDDC
TAF
KDDC 280542Z 2806/2906 15016G25KT P6SM VCSH SCT080 BKN250
     FM280700 15016G24KT P6SM FEW080 BKN250
     FM281500 16020G30KT P6SM SCT250
     FM282300 15022G32KT P6SM VCTS BKN070CB OVC250=

USA.gov is the U.S. government's official web portal to all federal, state and local government web resources and services.